Time;durP1;ratioP1;P1;durP2;ratioP2;P2;SDS_P1;SDS_P2;PMS_P1;PMS_P2;Temp;Humidity;BMP_temperature;BMP_pressure;BME280_temperature;BME280_humidity;BME280_pressure;Samples;Min_cycle;Max_cycle;Signal;HPM_P1;HPM_P2
2023/01/05 00:01:37;;;;;;;16.60;4.05;;;;;;;13.20;66.44;100185.53;5056554;28;20049;-60
2023/01/05 00:04:05;;;;;;;13.23;4.47;;;;;;;13.19;67.90;100186.72;5062757;28;20412;-60
2023/01/05 00:06:33;;;;;;;16.25;4.60;;;;;;;13.15;68.27;100179.34;5076209;28;20507;-61
2023/01/05 00:09:00;;;;;;;12.18;3.90;;;;;;;13.10;68.13;100179.53;5073783;28;20052;-60
2023/01/05 00:22:33;;;;;;;13.50;4.18;;;;;;;12.95;68.33;100212.50;5076350;28;20063;-60
2023/01/05 00:25:01;;;;;;;;;;;;;;;12.94;67.80;100213.66;5076238;28;20068;-61
2023/01/05 00:27:29;;;;;;;21.83;5.15;;;;;;;12.92;67.69;100212.38;5075890;28;19943;-60
2023/01/05 00:29:58;;;;;;;14.07;4.68;;;;;;;12.92;66.46;100204.00;5075564;28;20068;-61
2023/01/05 00:32:26;;;;;;;16.17;4.55;;;;;;;12.91;67.03;100199.53;5071461;28;20385;-61
2023/01/05 00:34:54;;;;;;;20.48;5.35;;;;;;;12.94;65.85;100201.66;5072478;28;20059;-61
2023/01/05 00:37:22;;;;;;;15.48;4.38;;;;;;;12.87;66.17;100206.94;5074498;28;20060;-60
2023/01/05 00:39:50;;;;;;;16.55;4.43;;;;;;;12.92;65.01;100210.38;5075903;28;20442;-61
2023/01/05 00:42:18;;;;;;;17.42;4.43;;;;;;;12.96;64.70;100216.13;5075228;28;20048;-61
2023/01/05 00:44:46;;;;;;;21.35;5.45;;;;;;;12.95;64.57;100206.09;5075545;28;20049;-61
2023/01/05 00:47:14;;;;;;;12.45;3.92;;;;;;;12.97;64.84;100224.16;5075349;28;20377;-60
2023/01/05 00:49:42;;;;;;;16.92;5.32;;;;;;;13.00;64.16;100229.09;5070553;28;20052;-60
2023/01/05 00:52:09;;;;;;;14.30;3.65;;;;;;;13.02;64.46;100225.13;5075063;28;20049;-60
2023/01/05 00:54:36;;;;;;;16.05;4.95;;;;;;;13.00;65.11;100217.91;5075336;28;20063;-60
2023/01/05 00:57:04;;;;;;;13.80;4.78;;;;;;;12.92;64.93;100213.19;5075049;28;20052;-60
2023/01/05 00:59:32;;;;;;;10.88;3.90;;;;;;;12.96;64.02;100211.34;5068534;28;20064;-60
2023/01/05 01:02:00;;;;;;;15.10;4.70;;;;;;;13.01;64.36;100218.72;5053689;28;20068;-60
2023/01/05 01:04:30;;;;;;;18.88;4.53;;;;;;;12.99;64.18;100213.47;5074554;28;20064;-60
2023/01/05 01:06:58;;;;;;;15.68;4.25;;;;;;;12.95;64.57;100211.69;5074943;28;20052;-60
2023/01/05 01:09:25;;;;;;;13.77;4.60;;;;;;;12.98;63.58;100225.81;5074447;28;20405;-60
2023/01/05 01:11:53;;;;;;;14.30;4.20;;;;;;;12.93;63.80;100226.00;5074445;28;20060;-60
2023/01/05 01:14:20;;;;;;;17.80;4.53;;;;;;;12.99;64.28;100233.03;5074508;28;20057;-60
2023/01/05 01:16:47;;;;;;;14.98;3.97;;;;;;;13.00;63.35;100219.91;5069756;28;20406;-57
2023/01/05 01:19:16;;;;;;;14.15;4.25;;;;;;;12.98;64.61;100219.41;5054350;28;20057;-60
2023/01/05 01:21:45;;;;;;;14.50;4.10;;;;;;;12.98;64.71;100225.81;5055054;28;20060;-60
2023/01/05 01:24:16;;;;;;;18.40;5.63;;;;;;;12.98;64.62;100225.00;5053602;28;20049;-60
2023/01/05 01:26:43;;;;;;;14.43;4.85;;;;;;;12.99;64.85;100223.84;5054432;28;20067;-60
2023/01/05 01:29:16;;;;;;;13.45;4.18;;;;;;;12.98;64.00;100223.03;5053959;28;20052;-60
2023/01/05 01:31:47;;;;;;;20.60;5.10;;;;;;;13.02;63.86;100219.53;5057397;28;20074;-60
2023/01/05 01:34:17;;;;;;;14.20;5.18;;;;;;;13.10;64.64;100215.88;5074196;28;20060;-60
2023/01/05 01:36:54;;;;;;;15.88;4.90;;;;;;;13.03;63.90;100229.59;5074396;28;20512;-57
2023/01/05 01:39:21;;;;;;;12.63;4.63;;;;;;;13.04;64.31;100232.06;5074236;28;20056;-61
2023/01/05 01:41:49;;;;;;;16.85;5.00;;;;;;;13.05;63.95;100230.06;5074444;28;20058;-60
2023/01/05 01:44:53;;;;;;;14.55;4.60;;;;;;;13.01;63.98;100235.50;5072671;28;20059;-61
2023/01/05 01:47:31;;;;;;;14.68;4.47;;;;;;;12.92;64.26;100243.13;5068559;28;20048;-60
2023/01/05 01:50:01;;;;;;;15.80;4.90;;;;;;;13.01;64.22;100241.09;5074095;28;20053;-60
2023/01/05 01:52:31;;;;;;;16.75;4.82;;;;;;;12.97;65.26;100242.91;5074103;28;20747;-61
2023/01/05 01:55:00;;;;;;;19.13;4.75;;;;;;;12.95;65.21;100254.44;5074200;28;20512;-58
2023/01/05 01:57:28;;;;;;;14.25;4.55;;;;;;;12.93;66.14;100261.53;5073941;28;20063;-60
2023/01/05 01:59:59;;;;;;;19.00;5.43;;;;;;;12.91;65.79;100256.25;5062643;28;20064;-60
2023/01/05 02:02:28;;;;;;;16.65;5.30;;;;;;;12.91;66.37;100270.22;5058777;28;20051;-61
2023/01/05 02:05:00;;;;;;;17.70;5.10;;;;;;;12.91;66.68;100267.44;5072435;28;20547;-60
2023/01/05 02:07:32;;;;;;;16.00;5.60;;;;;;;12.84;66.11;100275.53;5073894;28;20405;-61
2023/01/05 02:10:00;;;;;;;15.82;5.40;;;;;;;12.79;66.29;100256.16;5064927;28;20053;-60
2023/01/05 02:12:38;;;;;;;19.95;5.88;;;;;;;12.83;66.21;100259.94;5053902;28;20049;-61
2023/01/05 02:15:14;;;;;;;16.77;5.18;;;;;;;12.81;66.51;100270.63;5057339;28;20394;-60
2023/01/05 02:17:52;;;;;;;21.02;5.63;;;;;;;12.78;66.49;100276.88;5066632;28;20045;-60
2023/01/05 02:20:38;;;;;;;18.05;5.53;;;;;;;12.71;67.00;100269.00;5071592;28;20048;-60
2023/01/05 02:23:44;;;;;;;13.23;5.22;;;;;;;12.68;66.72;100272.50;5073276;28;20404;-60
2023/01/05 02:26:56;;;;;;;18.17;5.80;;;;;;;12.70;66.59;100267.34;5073497;28;20052;-59
2023/01/05 02:29:51;;;;;;;18.55;5.25;;;;;;;12.70;66.91;100270.16;5068091;28;20511;-61
2023/01/05 02:32:27;;;;;;;13.90;5.20;;;;;;;12.71;66.20;100265.41;5068756;28;20055;-60
2023/01/05 02:35:05;;;;;;;16.60;5.40;;;;;;;12.67;65.86;100275.59;5073520;28;20055;-60
2023/01/05 02:37:39;;;;;;;15.23;5.13;;;;;;;12.64;66.60;100270.66;5073056;28;20499;-60
2023/01/05 02:40:13;;;;;;;19.48;6.22;;;;;;;12.67;66.52;100265.25;5073518;28;20052;-60
2023/01/05 02:42:43;;;;;;;18.02;5.03;;;;;;;12.67;65.42;100270.84;5073400;28;20044;-60
2023/01/05 02:45:10;;;;;;;18.50;5.40;;;;;;;12.70;65.51;100269.34;5054283;28;20106;-60
2023/01/05 02:47:43;;;;;;;15.77;4.95;;;;;;;12.73;66.30;100277.06;5067692;28;20052;-60
2023/01/05 02:50:17;;;;;;;20.20;5.28;;;;;;;12.74;66.04;100273.91;5073051;28;20056;-60
2023/01/05 02:52:53;;;;;;;15.00;4.68;;;;;;;12.68;65.51;100277.22;5073015;28;20053;-60
2023/01/05 02:55:29;;;;;;;19.27;5.95;;;;;;;12.62;65.72;100273.81;5072588;28;20052;-60
2023/01/05 02:58:00;;;;;;;18.10;5.45;;;;;;;12.67;65.75;100278.41;5073244;28;20060;-60
2023/01/05 03:00:35;;;;;;;19.00;5.15;;;;;;;12.65;65.02;100286.28;5059684;28;20052;-60
2023/01/05 03:03:11;;;;;;;15.90;5.47;;;;;;;12.66;64.91;100279.53;5068104;28;20045;-60
2023/01/05 03:05:42;;;;;;;15.95;4.82;;;;;;;12.65;64.93;100289.09;5073017;28;20469;-60
2023/01/05 03:08:21;;;;;;;16.48;4.70;;;;;;;12.65;64.32;100277.91;5073014;28;20396;-60
2023/01/05 03:13:50;;;;;;;19.77;4.93;;;;;;;12.62;64.46;100275.78;5053731;28;20049;-60
2023/01/05 03:16:24;;;;;;;14.20;4.80;;;;;;;12.56;65.20;100272.34;5051039;28;20057;-59
2023/01/05 03:35:33;;;;;;;18.73;5.13;;;;;;;12.57;64.85;100287.94;5076888;28;20428;-61
2023/01/05 03:38:09;;;;;;;15.20;5.03;;;;;;;12.57;64.13;100299.13;5072438;28;20512;-60
2023/01/05 03:40:42;;;;;;;18.95;5.40;;;;;;;12.61;64.06;100282.53;5072332;28;20064;-51
2023/01/05 03:43:09;;;;;;;18.70;5.03;;;;;;;12.59;64.35;100296.81;5072553;28;20055;-51
2023/01/05 03:45:41;;;;;;;17.42;5.40;;;;;;;12.57;64.28;100287.94;5072196;28;20071;-49
2023/01/05 03:48:08;;;;;;;19.80;4.97;;;;;;;12.54;64.60;100295.03;5063265;28;20068;-52
2023/01/05 03:50:37;;;;;;;20.02;5.05;;;;;;;12.57;65.08;100290.75;5072364;28;20075;-50
2023/01/05 03:53:05;;;;;;;15.43;4.85;;;;;;;12.61;65.45;100299.28;5072355;28;20060;-52
2023/01/05 03:55:32;;;;;;;21.27;5.25;;;;;;;12.58;64.37;100301.59;5071892;28;20057;-52
2023/01/05 03:57:59;;;;;;;16.25;4.30;;;;;;;12.63;65.21;100296.97;5072598;28;20057;-53
2023/01/05 04:00:29;;;;;;;18.88;5.47;;;;;;;12.57;64.13;100291.56;5057963;28;20057;-50
2023/01/05 04:02:58;;;;;;;16.92;5.13;;;;;;;12.51;65.05;100301.25;5060594;28;20056;-51
2023/01/05 04:05:29;;;;;;;18.67;5.33;;;;;;;12.46;65.23;100303.44;5072107;28;20052;-52
2023/01/05 04:07:57;;;;;;;18.67;5.35;;;;;;;12.49;64.90;100303.56;5071909;28;20830;-53
2023/01/05 04:10:24;;;;;;;13.80;5.03;;;;;;;12.51;65.56;100298.47;5071992;28;20064;-51
2023/01/05 04:12:52;;;;;;;15.90;4.90;;;;;;;12.55;64.57;100315.41;5072249;28;20052;-50
2023/01/05 04:15:19;;;;;;;18.38;6.28;;;;;;;12.51;65.24;100318.03;5059936;28;20057;-50
2023/01/05 04:17:46;;;;;;;14.30;4.68;;;;;;;12.53;65.62;100309.31;5067946;28;20048;-49
2023/01/05 04:20:14;;;;;;;14.52;4.75;;;;;;;12.55;65.39;100305.03;5069394;28;20055;-50
2023/01/05 04:22:41;;;;;;;16.00;4.45;;;;;;;12.53;65.23;100312.94;5071598;28;20067;-51
2023/01/05 04:25:10;;;;;;;15.45;4.85;;;;;;;12.59;64.49;100317.19;5071788;28;20052;-50
2023/01/05 04:27:37;;;;;;;18.17;5.13;;;;;;;12.64;65.16;100312.59;5071820;28;20060;-50
2023/01/05 04:30:06;;;;;;;18.48;5.10;;;;;;;12.65;65.84;100314.25;5072042;28;20056;-53
2023/01/05 04:32:33;;;;;;;15.13;4.68;;;;;;;12.63;64.67;100313.75;5066681;28;20055;-53
2023/01/05 04:35:00;;;;;;;16.95;5.28;;;;;;;12.61;64.58;100316.06;5071674;28;20048;-52
2023/01/05 04:37:28;;;;;;;15.18;4.60;;;;;;;12.65;65.57;100317.03;5071432;28;20048;-50
2023/01/05 04:39:57;;;;;;;13.85;5.50;;;;;;;12.68;65.05;100307.97;5071934;28;20063;-50
2023/01/05 04:42:29;;;;;;;17.10;4.90;;;;;;;12.63;65.16;100317.34;5071603;28;20053;-51
2023/01/05 04:44:56;;;;;;;13.05;4.85;;;;;;;12.67;64.85;100328.69;5071462;28;20160;-49
2023/01/05 04:47:26;;;;;;;20.08;6.35;;;;;;;12.66;64.73;100322.31;5073270;28;20516;-49
2023/01/05 04:49:53;;;;;;;16.23;4.90;;;;;;;12.55;65.58;100327.38;5075853;28;20048;-52
2023/01/05 04:52:21;;;;;;;20.63;6.22;;;;;;;12.61;64.87;100316.88;5075238;28;20059;-50
2023/01/05 04:54:48;;;;;;;15.43;5.38;;;;;;;12.52;65.05;100314.09;5075376;28;20401;-51
2023/01/05 04:57:15;;;;;;;15.90;5.03;;;;;;;12.54;65.22;100317.38;5072756;28;20393;-52
2023/01/05 04:59:44;;;;;;;19.98;5.53;;;;;;;12.58;65.98;100311.97;5066772;28;20056;-51
2023/01/05 05:02:12;;;;;;;16.23;4.40;;;;;;;12.64;65.11;100333.00;5069221;28;20409;-52
2023/01/05 05:04:40;;;;;;;15.05;5.28;;;;;;;12.62;65.45;100317.69;5074853;28;20675;-49
2023/01/05 05:07:07;;;;;;;13.00;5.03;;;;;;;12.59;65.08;100328.38;5075218;28;20491;-52
2023/01/05 05:09:34;;;;;;;14.73;5.05;;;;;;;12.62;65.11;100331.66;5074601;28;20049;-52
2023/01/05 05:12:01;;;;;;;15.45;4.78;;;;;;;12.62;65.21;100323.28;5073424;28;20053;-53
2023/01/05 05:14:32;;;;;;;16.85;5.65;;;;;;;12.65;65.77;100336.59;5074741;28;20401;-49
2023/01/05 05:17:00;;;;;;;11.40;4.97;;;;;;;12.70;66.12;100342.00;5069046;28;20127;-50
2023/01/05 05:19:28;;;;;;;16.92;5.03;;;;;;;12.68;65.20;100338.72;5074710;28;20055;-51
2023/01/05 05:21:55;;;;;;;17.77;4.70;;;;;;;12.63;65.81;100341.69;5063386;28;20053;-50
2023/01/05 05:24:25;;;;;;;11.50;4.40;;;;;;;12.65;64.91;100344.97;5054465;28;20044;-53
2023/01/05 05:26:52;;;;;;;15.98;5.15;;;;;;;12.67;65.27;100342.66;5054857;28;20072;-51
2023/01/05 05:29:19;;;;;;;16.23;5.40;;;;;;;12.69;64.87;100337.56;5071287;28;20063;-51
2023/01/05 05:31:47;;;;;;;18.75;5.72;;;;;;;12.66;65.92;100347.44;5069125;28;20052;-52
2023/01/05 05:34:15;;;;;;;17.90;5.72;;;;;;;12.63;65.84;100353.69;5074287;28;20052;-52
2023/01/05 05:36:43;;;;;;;15.20;5.30;;;;;;;12.66;66.38;100355.84;5068494;28;20048;-53
2023/01/05 05:39:12;;;;;;;16.75;5.53;;;;;;;12.70;65.39;100364.34;5069898;28;20444;-50
2023/01/05 05:41:39;;;;;;;12.70;4.95;;;;;;;12.67;66.41;100359.44;5074166;28;20505;-54
2023/01/05 05:44:08;;;;;;;19.67;5.75;;;;;;;12.65;66.54;100384.09;5074208;28;20059;-51
2023/01/05 05:46:36;;;;;;;22.95;6.63;;;;;;;12.54;66.81;100373.25;5068837;28;20055;-48
2023/01/05 05:49:03;;;;;;;17.13;5.55;;;;;;;12.58;66.20;100384.59;5074135;28;20063;-49
2023/01/05 05:51:32;;;;;;;15.00;4.78;;;;;;;12.53;67.14;100373.59;5071311;28;20053;-53
2023/01/05 05:53:59;;;;;;;18.35;5.78;;;;;;;12.48;66.34;100385.75;5074185;28;20056;-50
2023/01/05 05:56:26;;;;;;;15.57;6.28;;;;;;;12.50;66.58;100394.63;5073022;28;20053;-49
2023/01/05 05:58:54;;;;;;;13.70;6.25;;;;;;;12.51;66.86;100399.03;5058933;28;20044;-52
2023/01/05 06:01:21;;;;;;;19.25;6.50;;;;;;;12.53;67.94;100387.56;5052550;28;20061;-52
2023/01/05 06:03:49;;;;;;;17.02;6.30;;;;;;;12.47;68.24;100397.25;5056414;28;20060;-49
2023/01/05 06:06:18;;;;;;;17.88;6.38;;;;;;;12.41;69.55;100396.59;5043648;28;20056;-49
2023/01/05 06:08:46;;;;;;;15.50;7.90;;;;;;;12.35;69.49;100395.94;5047483;28;20119;-53
2023/01/05 06:11:13;;;;;;;24.15;8.85;;;;;;;12.31;69.94;100394.97;5052276;28;20049;-50
2023/01/05 06:13:41;;;;;;;17.75;7.72;;;;;;;12.27;70.69;100398.75;5050960;28;20052;-53
2023/01/05 06:16:08;;;;;;;21.63;8.00;;;;;;;12.23;71.34;100394.97;5046389;28;20053;-52
2023/01/05 06:18:35;;;;;;;20.42;8.13;;;;;;;12.22;71.25;100410.91;5051970;28;20063;-50
2023/01/05 06:21:03;;;;;;;21.75;7.93;;;;;;;12.18;70.59;100413.50;5047905;28;20052;-53
2023/01/05 06:23:30;;;;;;;23.45;8.10;;;;;;;12.13;71.26;100419.25;5059075;28;20059;-49
2023/01/05 06:25:58;;;;;;;22.02;9.27;;;;;;;12.11;72.26;100420.72;5072535;28;20049;-54
2023/01/05 06:28:26;;;;;;;17.63;6.38;;;;;;;12.02;71.96;100426.28;5073552;28;20048;-49
2023/01/05 06:30:53;;;;;;;15.63;6.60;;;;;;;12.02;72.63;100423.50;5073089;28;20052;-49
2023/01/05 06:33:20;;;;;;;16.83;7.05;;;;;;;11.95;72.78;100423.97;5064185;28;20052;-49
2023/01/05 06:35:48;;;;;;;16.08;6.97;;;;;;;11.96;72.46;100427.59;5073217;28;20071;-53
2023/01/05 06:38:15;;;;;;;21.42;7.63;;;;;;;11.89;73.81;100430.88;5072554;28;20500;-53
2023/01/05 06:40:43;;;;;;;17.20;6.90;;;;;;;11.87;73.57;100429.50;5073065;28;20059;-50
2023/01/05 06:43:12;;;;;;;23.35;8.52;;;;;;;11.89;73.80;100435.63;5073444;28;20405;-54
2023/01/05 06:45:39;;;;;;;20.00;7.10;;;;;;;11.86;74.18;100441.81;5072757;28;20520;-52
2023/01/05 06:48:07;;;;;;;21.10;9.00;;;;;;;11.82;74.17;100433.25;5066659;28;20056;-50
2023/01/05 06:50:34;;;;;;;22.10;9.05;;;;;;;11.82;74.13;100436.03;5072871;28;20473;-53
2023/01/05 06:53:01;;;;;;;22.50;9.88;;;;;;;11.82;74.80;100446.41;5068400;28;20052;-51
2023/01/05 06:55:29;;;;;;;21.77;9.50;;;;;;;11.75;74.95;100442.09;5052981;28;20093;-49
2023/01/05 06:57:56;;;;;;;23.85;9.85;;;;;;;11.75;74.77;100446.88;5051259;28;20069;-51
2023/01/05 07:00:25;;;;;;;23.02;9.63;;;;;;;11.73;75.25;100443.56;5049551;28;20053;-51
2023/01/05 07:02:52;;;;;;;21.30;8.25;;;;;;;11.76;75.27;100449.34;5047504;28;20123;-52
2023/01/05 07:05:19;;;;;;;25.05;9.60;;;;;;;11.78;75.41;100449.84;5049570;28;20049;-50
2023/01/05 07:07:46;;;;;;;21.35;8.05;;;;;;;11.76;75.24;100451.31;5048719;28;20049;-50
2023/01/05 07:10:14;;;;;;;28.02;8.82;;;;;;;11.71;75.41;100452.25;5050257;28;20048;-53
2023/01/05 07:12:41;;;;;;;19.48;8.77;;;;;;;11.71;75.98;100449.47;5051633;28;20048;-53
2023/01/05 07:15:10;;;;;;;20.83;9.13;;;;;;;11.72;75.85;100464.28;5046770;28;20045;-54
2023/01/05 07:17:38;;;;;;;25.10;9.50;;;;;;;11.79;75.63;100468.22;5047653;28;20049;-50
2023/01/05 07:20:07;;;;;;;23.20;9.57;;;;;;;11.78;75.63;100461.00;5049794;28;20056;-48
2023/01/05 07:22:34;;;;;;;17.48;9.00;;;;;;;11.79;75.19;100470.19;5050547;28;20049;-50
2023/01/05 07:25:01;;;;;;;19.73;8.20;;;;;;;11.79;75.57;100476.59;5050121;28;20049;-53
2023/01/05 07:27:29;;;;;;;19.77;8.77;;;;;;;11.74;74.91;100468.38;5049674;28;20049;-51
2023/01/05 07:29:56;;;;;;;17.63;8.25;;;;;;;11.83;74.91;100470.38;5049081;28;20068;-50
2023/01/05 07:32:23;;;;;;;20.88;8.23;;;;;;;11.77;74.84;100481.66;5043153;28;20056;-52
2023/01/05 07:34:52;;;;;;;19.52;8.45;;;;;;;11.83;75.13;100481.53;5070163;28;20056;-51
2023/01/05 07:37:19;;;;;;;19.85;9.27;;;;;;;11.80;75.33;100488.59;5072150;28;20059;-50
2023/01/05 07:39:46;;;;;;;20.80;9.10;;;;;;;11.76;76.03;100493.19;5072132;28;20056;-51
2023/01/05 07:42:14;;;;;;;22.60;9.05;;;;;;;11.78;76.10;100494.50;5072286;28;20410;-52
2023/01/05 07:44:41;;;;;;;19.73;8.93;;;;;;;11.82;76.13;100491.03;5071973;28;20059;-50
2023/01/05 07:47:08;;;;;;;19.92;9.15;;;;;;;11.78;75.60;100490.88;5067594;28;20056;-52
2023/01/05 07:49:35;;;;;;;17.92;8.77;;;;;;;11.83;75.22;100493.53;5072217;28;20412;-52
2023/01/05 07:52:04;;;;;;;18.25;9.07;;;;;;;11.76;75.15;100501.56;5072074;28;20055;-52
2023/01/05 07:54:31;;;;;;;21.83;9.07;;;;;;;11.82;75.65;100507.78;5071969;28;20052;-49
2023/01/05 07:56:59;;;;;;;15.25;8.13;;;;;;;11.88;75.52;100509.28;5072273;28;20469;-53
2023/01/05 07:59:26;;;;;;;20.23;8.55;;;;;;;11.85;75.13;100510.78;5072100;28;20055;-52
2023/01/05 08:01:53;;;;;;;18.48;9.25;;;;;;;11.90;75.06;100518.19;5065576;28;20477;-53
2023/01/05 08:04:21;;;;;;;23.63;10.80;;;;;;;11.89;74.64;100525.75;5071124;28;20063;-50
2023/01/05 08:06:48;;;;;;;20.23;10.05;;;;;;;11.87;75.06;100522.44;5071863;28;20405;-52
2023/01/05 08:12:01;;;;;;;21.42;9.80;;;;;;;11.80;75.27;100530.47;5077514;28;20063;-49
2023/01/05 08:14:28;;;;;;;17.38;8.82;;;;;;;11.85;75.69;100533.09;5070013;28;20052;-53
2023/01/05 08:16:55;;;;;;;21.35;10.82;;;;;;;11.88;75.63;100540.84;5069361;28;20059;-52
2023/01/05 08:19:23;;;;;;;29.13;11.50;;;;;;;11.88;75.43;100535.25;5073689;28;20055;-50
2023/01/05 08:21:50;;;;;;;20.98;10.60;;;;;;;11.81;74.74;100540.47;5075524;28;20048;-52
2023/01/05 08:24:19;;;;;;;24.15;10.43;;;;;;;11.90;74.51;100538.56;5075983;28;20056;-53
2023/01/05 08:26:49;;;;;;;26.38;11.07;;;;;;;11.83;74.14;100543.75;5075424;28;20072;-51
2023/01/05 08:29:16;;;;;;;25.25;9.82;;;;;;;11.83;74.48;100549.34;5075900;28;20056;-52
2023/01/05 08:31:43;;;;;;;27.42;10.48;;;;;;;11.92;74.40;100541.84;5066058;28;20049;-53
2023/01/05 08:34:10;;;;;;;21.98;10.73;;;;;;;12.00;74.08;100557.00;5055871;28;20056;-52
2023/01/05 08:36:38;;;;;;;24.48;11.10;;;;;;;11.95;73.58;100546.81;5055473;28;20049;-53
2023/01/05 08:39:06;;;;;;;23.35;10.75;;;;;;;11.98;74.43;100564.88;5055217;28;20486;-51
2023/01/05 08:41:37;;;;;;;28.40;11.30;;;;;;;11.94;73.81;100561.06;5055219;28;20053;-53
2023/01/05 08:44:07;;;;;;;20.60;11.13;;;;;;;12.01;74.33;100555.03;5054661;28;20053;-52
2023/01/05 08:46:35;;;;;;;;;;;;;;;12.02;74.27;100549.13;5075906;28;20049;-52
2023/01/05 08:49:04;;;;;;;23.42;10.18;;;;;;;11.99;73.78;100555.38;5075523;28;19920;-53
2023/01/05 08:51:32;;;;;;;25.55;8.95;;;;;;;11.95;74.17;100566.34;5070771;28;20591;-53
2023/01/05 08:53:59;;;;;;;21.40;8.95;;;;;;;11.98;73.83;100574.06;5075242;28;20055;-52
2023/01/05 08:56:27;;;;;;;18.65;9.30;;;;;;;12.04;73.92;100566.38;5075519;28;20044;-52
2023/01/05 08:58:57;;;;;;;21.40;9.70;;;;;;;12.07;74.23;100565.72;5074726;28;20060;-50
2023/01/05 09:01:25;;;;;;;18.55;8.23;;;;;;;12.08;73.00;100567.38;5073003;28;20404;-51
2023/01/05 09:03:52;;;;;;;22.05;9.80;;;;;;;12.04;73.93;100566.38;5075270;28;20053;-53
2023/01/05 09:06:20;;;;;;;19.90;8.70;;;;;;;12.11;73.14;100571.50;5074827;28;20044;-52
2023/01/05 09:08:47;;;;;;;16.75;7.40;;;;;;;12.24;72.98;100573.38;5075020;28;20063;-53
2023/01/05 09:11:17;;;;;;;22.75;8.80;;;;;;;12.35;72.87;100582.28;5075139;28;20052;-53
2023/01/05 09:13:47;;;;;;;29.58;9.13;;;;;;;12.42;72.44;100584.59;5072303;28;20064;-52
2023/01/05 09:16:18;;;;;;;17.02;7.93;;;;;;;12.43;71.91;100577.84;5075167;28;20057;-54
2023/01/05 09:18:46;;;;;;;23.98;10.23;;;;;;;12.48;71.80;100586.91;5075187;28;20052;-49
2023/01/05 09:21:13;;;;;;;19.90;8.63;;;;;;;12.52;71.03;100582.31;5074807;28;20048;-53
2023/01/05 09:23:41;;;;;;;20.20;9.13;;;;;;;12.51;71.17;100589.03;5075138;28;20057;-53
2023/01/05 09:26:11;;;;;;;21.35;9.63;;;;;;;12.52;70.64;100601.88;5074740;28;20067;-53
2023/01/05 09:28:39;;;;;;;21.15;8.25;;;;;;;12.51;71.69;100602.19;5072359;28;20052;-52
2023/01/05 09:31:08;;;;;;;17.58;8.80;;;;;;;12.58;71.16;100617.34;5072021;28;20052;-53
2023/01/05 09:33:36;;;;;;;21.77;9.65;;;;;;;12.58;70.89;100602.56;5054826;28;20379;-52
2023/01/05 09:36:04;;;;;;;24.77;10.73;;;;;;;12.62;70.87;100609.13;5054685;28;20060;-53
2023/01/05 09:38:31;;;;;;;23.73;10.30;;;;;;;12.72;70.10;100622.78;5054900;28;20057;-54
2023/01/05 09:41:05;;;;;;;23.85;10.48;;;;;;;12.73;70.49;100620.84;5054326;28;20060;-52
2023/01/05 09:43:39;;;;;;;19.15;9.93;;;;;;;12.84;70.25;100621.34;5061798;28;20052;-53
2023/01/05 09:46:13;;;;;;;25.52;10.95;;;;;;;12.90;69.60;100625.63;5074555;28;20057;-52
2023/01/05 09:48:57;;;;;;;21.45;9.45;;;;;;;12.91;69.85;100622.50;5074366;28;20488;-53
2023/01/05 09:51:24;;;;;;;25.30;10.30;;;;;;;12.92;69.17;100628.94;5074211;28;20052;-54
2023/01/05 09:53:51;;;;;;;22.00;10.75;;;;;;;12.94;69.45;100637.81;5074094;28;20053;-54
2023/01/05 09:56:27;;;;;;;22.65;9.50;;;;;;;12.86;68.58;100633.84;5073812;28;20052;-56
2023/01/05 09:59:03;;;;;;;19.90;8.90;;;;;;;12.86;68.55;100641.41;5034250;28;20084;-52
2023/01/05 10:01:33;;;;;;;22.23;9.65;;;;;;;12.91;68.70;100642.06;5034561;28;20054;-54
2023/01/05 10:04:04;;;;;;;;;;;;;;;12.83;68.62;100654.06;5034728;28;20065;-50
2023/01/05 10:06:36;;;;;;;27.95;10.05;;;;;;;12.86;69.07;100647.81;5034443;28;19928;-53
2023/01/05 10:09:07;;;;;;;24.75;10.52;;;;;;;12.87;69.48;100654.22;5034760;28;20065;-53
2023/01/05 10:14:35;;;;;;;23.42;10.18;;;;;;;12.86;68.43;100659.00;5059810;28;20053;-53
2023/01/05 10:17:02;;;;;;;23.50;10.38;;;;;;;12.97;69.35;100648.31;5053581;28;20053;-53
2023/01/05 10:19:31;;;;;;;31.02;10.98;;;;;;;12.98;69.49;100642.41;5053453;28;20052;-53
2023/01/05 10:22:07;;;;;;;25.63;11.05;;;;;;;13.05;68.96;100649.50;5053363;28;20068;-52
2023/01/05 10:24:46;;;;;;;23.45;9.93;;;;;;;13.07;67.93;100655.59;5053508;28;20060;-52
2023/01/05 10:27:19;;;;;;;20.63;9.93;;;;;;;13.09;68.17;100656.09;5052036;28;20493;-52
2023/01/05 10:29:48;;;;;;;19.20;9.18;;;;;;;13.15;68.01;100654.78;5072699;28;20060;-52
2023/01/05 10:32:28;;;;;;;22.98;9.18;;;;;;;13.23;67.38;100658.72;5061484;28;20493;-53
2023/01/05 10:35:03;;;;;;;18.77;9.20;;;;;;;13.23;68.00;100661.50;5053057;28;20501;-53
2023/01/05 10:37:47;;;;;;;24.10;9.40;;;;;;;13.34;67.61;100666.50;5053434;28;20055;-53
2023/01/05 10:40:27;;;;;;;20.63;8.48;;;;;;;13.33;66.83;100667.66;5056890;28;20048;-53
2023/01/05 10:43:13;;;;;;;20.98;8.55;;;;;;;13.45;66.36;100681.00;5072527;28;20048;-53
2023/01/05 10:45:41;;;;;;;22.35;8.10;;;;;;;13.44;67.03;100670.13;5063241;28;20048;-53
2023/01/05 10:48:13;;;;;;;19.83;9.00;;;;;;;13.58;66.00;100674.38;5068692;28;20049;-51
2023/01/05 10:50:43;;;;;;;19.52;8.73;;;;;;;13.65;66.37;100676.72;5073282;28;20448;-52
2023/01/05 10:53:14;;;;;;;19.27;8.30;;;;;;;13.72;66.05;100674.22;5073133;28;20493;-54
2023/01/05 10:55:50;;;;;;;21.42;8.90;;;;;;;13.81;65.69;100671.41;5057407;28;20055;-52
2023/01/05 10:58:27;;;;;;;21.80;8.18;;;;;;;13.81;64.28;100675.03;5073064;28;20049;-51
2023/01/05 11:00:57;;;;;;;22.65;8.73;;;;;;;13.76;63.98;100677.19;5072195;28;20079;-53
2023/01/05 11:03:34;;;;;;;22.17;8.30;;;;;;;13.75;65.09;100684.78;5072328;28;20056;-53
2023/01/05 11:06:03;;;;;;;21.38;8.90;;;;;;;13.79;64.81;100677.34;5072846;28;20060;-53
2023/01/05 11:08:32;;;;;;;19.80;8.07;;;;;;;13.73;65.03;100678.69;5073197;28;20478;-52
2023/01/05 11:11:01;;;;;;;23.83;8.25;;;;;;;13.76;64.19;100686.41;5070131;28;20071;-50
2023/01/05 11:13:32;;;;;;;18.77;7.68;;;;;;;13.79;65.00;100693.31;5072948;28;20063;-53
2023/01/05 11:16:06;;;;;;;18.65;7.63;;;;;;;13.74;64.36;100697.13;5072610;28;20063;-51
2023/01/05 11:18:37;;;;;;;20.55;7.63;;;;;;;13.69;64.74;100686.09;5072851;28;20049;-53
2023/01/05 11:21:11;;;;;;;18.13;7.50;;;;;;;13.72;64.42;100690.22;5072230;28;20055;-52
2023/01/05 11:23:40;;;;;;;21.20;7.57;;;;;;;13.69;63.57;100679.66;5072758;28;20052;-50
2023/01/05 11:26:31;;;;;;;22.45;7.85;;;;;;;13.64;64.29;100685.44;5070018;28;20056;-51
2023/01/05 11:29:13;;;;;;;19.85;7.32;;;;;;;13.67;64.66;100685.59;5072178;28;20055;-52
2023/01/05 11:31:45;;;;;;;20.55;7.70;;;;;;;13.60;64.20;100688.88;5065232;28;20045;-53
2023/01/05 11:34:26;;;;;;;16.05;6.50;;;;;;;13.62;65.04;100690.53;5052563;28;20049;-52
2023/01/05 11:36:57;;;;;;;14.68;6.18;;;;;;;13.58;64.04;100688.38;5052325;28;20395;-51
2023/01/05 11:39:30;;;;;;;16.95;6.88;;;;;;;13.59;64.63;100681.66;5061190;28;20057;-52
2023/01/05 11:42:18;;;;;;;16.80;6.93;;;;;;;13.61;64.19;100686.94;5072131;28;20052;-52
2023/01/05 11:44:49;;;;;;;17.85;7.50;;;;;;;13.63;64.12;100684.63;5071881;28;20049;-52
2023/01/05 11:47:26;;;;;;;21.08;6.38;;;;;;;13.71;63.47;100681.00;5072469;28;20370;-53
2023/01/05 11:50:06;;;;;;;18.42;6.65;;;;;;;13.67;63.16;100680.00;5056652;28;20053;-52
2023/01/05 11:52:36;;;;;;;15.38;6.13;;;;;;;13.73;63.36;100689.88;5052341;28;20057;-51
2023/01/05 11:55:29;;;;;;;19.73;7.25;;;;;;;13.70;63.14;100692.53;5067025;28;20049;-53
2023/01/05 11:58:13;;;;;;;21.23;7.07;;;;;;;13.72;64.01;100688.22;5076162;28;20063;-50
2023/01/05 12:00:51;;;;;;;20.30;7.72;;;;;;;13.67;63.61;100685.59;5069172;28;20049;-51
2023/01/05 12:03:33;;;;;;;17.15;6.80;;;;;;;13.70;62.87;100682.13;5062421;28;20052;-52
2023/01/05 12:06:08;;;;;;;14.73;7.18;;;;;;;13.71;62.37;100683.78;5073958;28;20060;-50
2023/01/05 12:08:45;;;;;;;25.05;6.82;;;;;;;13.86;62.60;100681.63;5075506;28;20044;-52